createdAt,value
2019-03-25T00:33:52.315Z,60.60
2019-03-25T00:37:10.953Z,60.40
2019-03-25T00:58:07.498Z,60.30
2019-03-25T01:16:30.013Z,61.80
2019-03-25T01:44:43.460Z,63.60
2019-03-25T02:08:59.180Z,64.60
2019-03-25T02:11:54.602Z,64.80
2019-03-25T02:18:25.052Z,64.90
2019-03-25T02:21:21.033Z,65.10
2019-03-25T02:24:02.269Z,65.20
2019-03-25T02:26:45.233Z,65.20
2019-03-25T02:30:02.871Z,65.40
2019-03-25T02:32:58.746Z,65.40
2019-03-25T02:36:00.125Z,65.40
2019-03-25T02:38:39.587Z,65.60
2019-03-25T02:41:13.289Z,65.80
2019-03-25T02:43:47.898Z,65.80
2019-03-25T02:46:24.916Z,66.00
2019-03-25T02:49:03.780Z,66.10
2019-03-25T02:51:38.295Z,66.20
2019-03-25T02:54:29.201Z,66.20
2019-03-25T02:57:28.423Z,66.20
2019-03-25T03:00:06.711Z,66.40
2019-03-25T03:02:38.842Z,66.30
2019-03-25T03:05:28.121Z,66.30
2019-03-25T03:08:21.374Z,66.40
2019-03-25T03:11:21.236Z,66.60
2019-03-25T03:14:15.728Z,66.20
2019-03-25T03:16:54.756Z,66.30
2019-03-25T03:19:25.898Z,66.40
2019-03-25T03:22:34.189Z,66.20
2019-03-25T03:25:32.172Z,66.20
2019-03-25T03:28:15.449Z,66.10
2019-03-25T03:31:13.473Z,66.80
2019-03-25T03:33:47.131Z,66.20
2019-03-25T03:36:55.101Z,66.10
2019-03-25T03:39:42.886Z,66.00
2019-03-25T03:42:14.726Z,65.90
2019-03-25T03:44:50.090Z,65.80
2019-03-25T03:47:50.936Z,65.70
2019-03-25T03:50:29.480Z,65.70
2019-03-25T03:53:02.862Z,65.70
2019-03-25T03:55:44.342Z,65.60
2019-03-25T03:58:23.459Z,65.80
2019-03-25T04:00:58.027Z,65.80
2019-03-25T04:03:30.100Z,65.80
2019-03-25T04:06:16.895Z,65.70
2019-03-25T04:09:09.887Z,65.70
2019-03-25T04:11:43.415Z,66.00
2019-03-25T04:14:16.739Z,66.00
2019-03-25T04:17:07.155Z,66.00
2019-03-25T04:19:39.404Z,66.20
2019-03-25T04:22:18.503Z,66.30
2019-03-25T04:24:51.895Z,66.50
2019-03-25T04:27:25.621Z,66.90
2019-03-25T04:29:57.100Z,67.10
2019-03-25T04:32:28.751Z,67.30
2019-03-25T04:35:00.879Z,67.40
2019-03-25T04:37:45.721Z,67.40
2019-03-25T04:40:24.700Z,67.50
2019-03-25T04:43:00.266Z,67.40
2019-03-25T04:45:32.861Z,67.40
2019-03-25T04:48:13.360Z,67.40
2019-03-25T04:50:46.068Z,67.50
2019-03-25T04:53:16.758Z,67.40
2019-03-25T04:55:47.398Z,67.60
2019-03-25T04:58:21.853Z,67.80
2019-03-25T05:00:56.467Z,68.00
2019-03-25T05:03:44.530Z,67.80
2019-03-25T05:06:19.488Z,67.60
2019-03-25T05:08:51.826Z,67.50
2019-03-25T05:11:30.563Z,67.10
2019-03-25T05:14:00.287Z,67.50
2019-03-25T05:16:37.417Z,67.50
2019-03-25T05:19:11.267Z,67.80
2019-03-25T05:21:49.943Z,67.80
2019-03-25T05:24:29.712Z,67.80
2019-03-25T05:27:38.820Z,67.80
2019-03-25T05:30:13.362Z,67.90
2019-03-25T05:32:49.642Z,68.10
2019-03-25T05:35:22.993Z,68.00
2019-03-25T05:37:53.664Z,68.20
2019-03-25T05:40:32.035Z,68.10
2019-03-25T05:46:27.093Z,68.20
2019-03-25T05:49:05.786Z,68.20
2019-03-25T05:51:36.741Z,68.10
2019-03-25T05:54:07.765Z,68.10
2019-03-25T05:56:39.856Z,68.30
2019-03-25T05:59:15.586Z,68.30
2019-03-25T06:01:51.291Z,68.20
2019-03-25T06:04:22.178Z,68.20
2019-03-25T06:07:16.861Z,68.10
2019-03-25T06:09:51.573Z,68.00
2019-03-25T06:12:22.614Z,67.80
2019-03-25T06:14:57.183Z,67.40
2019-03-25T06:17:33.257Z,67.30
2019-03-25T06:20:12.000Z,67.30
2019-03-25T06:22:47.989Z,67.30
2019-03-25T06:25:23.542Z,67.30
2019-03-25T06:28:17.590Z,67.50
2019-03-25T06:31:12.843Z,67.50
2019-03-25T06:33:55.252Z,67.20
2019-03-25T06:39:29.812Z,67.20
2019-03-25T06:42:38.659Z,67.20
2019-03-25T06:46:01.871Z,67.10
2019-03-25T06:49:23.097Z,67.00
2019-03-25T06:52:31.058Z,67.00
2019-03-25T07:02:14.459Z,66.50
2019-03-25T07:04:47.550Z,66.40
2019-03-25T07:07:19.850Z,66.00
2019-03-25T07:09:50.381Z,65.90
2019-03-25T07:12:24.797Z,65.70
2019-03-25T07:14:54.561Z,65.40
2019-03-25T07:17:29.385Z,65.40
2019-03-25T07:20:19.001Z,65.40
2019-03-25T07:22:52.240Z,64.80
2019-03-25T07:25:26.594Z,64.70
2019-03-25T07:28:19.664Z,64.50
2019-03-25T07:30:59.781Z,64.50
2019-03-25T07:33:31.099Z,64.50
2019-03-25T07:36:06.276Z,64.40
2019-03-25T07:38:39.183Z,64.40
2019-03-25T07:41:13.548Z,64.40
2019-03-25T07:43:45.311Z,64.40
2019-03-25T07:46:15.666Z,64.40
2019-03-25T07:48:49.525Z,64.60
2019-03-25T07:51:28.317Z,64.40
2019-03-25T07:54:04.588Z,63.90
2019-03-25T07:56:36.368Z,63.90
2019-03-25T07:59:17.181Z,63.80
2019-03-25T08:01:51.265Z,63.60
2019-03-25T08:04:43.298Z,63.50
2019-03-25T08:07:20.094Z,63.50
2019-03-25T08:09:52.496Z,63.70
2019-03-25T08:12:23.375Z,63.50
2019-03-25T08:14:56.881Z,63.20
2019-03-25T08:17:45.909Z,63.20
2019-03-25T08:20:19.353Z,63.30
2019-03-25T08:22:50.946Z,63.50
2019-03-25T08:25:22.786Z,63.70
2019-03-25T08:27:59.842Z,63.70
2019-03-25T08:30:24.553Z,63.80
2019-03-25T08:32:59.125Z,63.70
2019-03-25T08:35:31.899Z,63.80
2019-03-25T08:38:20.662Z,63.80
2019-03-25T08:40:51.989Z,64.00
2019-03-25T08:43:24.024Z,64.30
2019-03-25T08:45:54.526Z,64.40
2019-03-25T08:48:23.970Z,64.30
2019-03-25T08:50:55.410Z,64.40
2019-03-25T08:53:24.962Z,64.60
2019-03-25T08:55:57.656Z,64.60
2019-03-25T08:58:34.894Z,64.70
2019-03-25T09:01:04.844Z,65.20
2019-03-25T09:03:36.380Z,65.20
2019-03-25T09:06:08.763Z,65.50
2019-03-25T09:08:40.839Z,65.40
2019-03-25T09:11:11.437Z,65.80
2019-03-25T09:13:41.158Z,66.10
2019-03-25T09:16:13.734Z,65.90
2019-03-25T09:19:05.338Z,65.50
2019-03-25T09:21:39.478Z,65.10
2019-03-25T09:24:09.942Z,65.10
2019-03-25T09:26:48.699Z,65.00
2019-03-25T09:29:24.644Z,65.20
2019-03-25T09:31:57.608Z,65.20
2019-03-25T09:34:27.343Z,65.20
2019-03-25T09:36:57.098Z,65.40
2019-03-25T09:39:30.208Z,65.50
2019-03-25T09:42:04.122Z,65.40
2019-03-25T09:44:41.512Z,65.40
2019-03-25T09:47:18.411Z,65.50
2019-03-25T09:49:49.586Z,65.30
2019-03-25T09:52:22.781Z,65.00
2019-03-25T09:54:53.001Z,64.90
2019-03-25T09:57:23.817Z,64.60
2019-03-25T09:59:55.676Z,64.10
2019-03-25T10:02:29.185Z,63.70
2019-03-25T10:04:59.442Z,63.60
2019-03-25T10:07:36.231Z,63.20
2019-03-25T10:10:08.401Z,62.70
2019-03-25T10:12:49.512Z,62.20
2019-03-25T10:15:19.833Z,60.90
2019-03-25T10:17:57.553Z,59.80
2019-03-25T10:20:28.094Z,59.10
2019-03-25T10:23:01.261Z,58.40
2019-03-25T10:25:35.015Z,58.10
2019-03-25T10:28:08.260Z,58.10
2019-03-25T10:30:41.432Z,58.10
2019-03-25T10:33:12.423Z,58.00
2019-03-25T10:35:42.830Z,57.20
2019-03-25T10:38:19.600Z,56.70
2019-03-25T10:40:47.261Z,56.70
2019-03-25T10:43:18.090Z,56.80
2019-03-25T10:45:48.342Z,57.10
2019-03-25T10:48:20.537Z,57.10
2019-03-25T10:50:50.595Z,57.10
2019-03-25T10:53:25.285Z,57.20
2019-03-25T10:55:59.956Z,57.30
2019-03-25T10:58:35.599Z,57.20
2019-03-25T11:01:09.516Z,56.90
2019-03-25T11:03:43.613Z,56.40
2019-03-25T11:06:15.723Z,56.10
2019-03-25T11:08:45.543Z,56.20
2019-03-25T11:11:16.821Z,56.30
2019-03-25T11:13:46.334Z,56.40
2019-03-25T11:16:25.155Z,56.80
2019-03-25T11:19:05.469Z,57.10
2019-03-25T11:21:41.336Z,57.60
2019-03-25T11:24:15.177Z,57.90
2019-03-25T11:30:57.590Z,58.30
2019-03-25T11:33:42.754Z,58.10
2019-03-25T11:36:18.011Z,58.30
2019-03-25T11:38:54.538Z,58.40
2019-03-25T11:41:29.514Z,58.50
2019-03-25T11:44:01.123Z,58.50
2019-03-25T11:46:31.813Z,58.40
2019-03-25T11:51:45.133Z,58.40
2019-03-25T11:54:32.693Z,58.40
2019-03-25T11:57:08.968Z,58.30
2019-03-25T11:59:42.835Z,58.40
2019-03-25T12:02:34.205Z,57.90
2019-03-25T12:05:09.302Z,58.00
2019-03-25T12:07:40.380Z,56.90
2019-03-25T12:10:16.496Z,56.70
2019-03-25T12:12:50.486Z,56.40
2019-03-25T12:15:23.557Z,56.20
2019-03-25T12:18:01.191Z,55.60
2019-03-25T12:20:33.080Z,54.30
2019-03-25T12:23:25.957Z,53.90
2019-03-25T12:32:45.497Z,52.30
2019-03-25T12:35:35.525Z,52.00
2019-03-25T12:38:23.484Z,52.30
2019-03-25T12:40:56.089Z,52.40
2019-03-25T12:43:33.133Z,52.60
2019-03-25T12:46:04.840Z,52.80
2019-03-25T12:48:39.775Z,52.50
2019-03-25T12:51:37.131Z,52.40
2019-03-25T12:54:14.734Z,52.00
2019-03-25T12:56:44.197Z,51.50
2019-03-25T12:59:14.328Z,51.10
2019-03-25T13:01:52.967Z,51.10
2019-03-25T13:04:20.107Z,51.30
2019-03-25T13:07:11.383Z,51.70
2019-03-25T13:10:00.347Z,51.90
2019-03-25T13:12:32.528Z,51.90
2019-03-25T13:15:09.774Z,51.60
2019-03-25T13:17:49.159Z,51.50
2019-03-25T13:20:28.481Z,50.70
2019-03-25T13:22:59.233Z,50.60
2019-03-25T13:25:29.614Z,50.50
2019-03-25T13:28:09.460Z,50.50
2019-03-25T13:31:00.735Z,50.40
2019-03-25T13:33:32.365Z,49.20
2019-03-25T13:36:16.738Z,49.10
2019-03-25T13:38:55.115Z,49.00
2019-03-25T13:41:27.082Z,48.90
2019-03-25T13:43:59.094Z,48.60
2019-03-25T13:46:30.341Z,48.50
2019-03-25T13:49:12.174Z,48.40
2019-03-25T13:51:50.347Z,48.30
2019-03-25T13:54:20.915Z,48.00
2019-03-25T13:56:56.883Z,48.60
2019-03-25T13:59:28.532Z,49.70
2019-03-25T14:02:00.468Z,51.20
2019-03-25T14:04:31.401Z,53.00
2019-03-25T14:07:16.105Z,53.30
2019-03-25T14:09:49.768Z,53.50
2019-03-25T14:12:31.826Z,53.40
2019-03-25T14:15:10.848Z,53.30
2019-03-25T14:18:03.651Z,52.10
2019-03-25T14:20:41.635Z,51.80
2019-03-25T14:23:59.513Z,52.30
2019-03-25T14:26:29.037Z,56.30
2019-03-25T14:28:59.409Z,58.80
2019-03-25T14:31:42.333Z,60.00
2019-03-25T14:34:14.420Z,60.90
2019-03-25T14:36:53.001Z,62.10
2019-03-25T14:39:19.424Z,62.20
2019-03-25T14:41:53.492Z,62.50
2019-03-25T14:44:25.568Z,63.00
2019-03-25T14:47:02.830Z,62.90
2019-03-25T14:49:35.531Z,63.10
2019-03-25T14:52:39.406Z,63.20
2019-03-25T14:55:11.223Z,63.10
2019-03-25T14:58:04.043Z,63.10
2019-03-25T15:00:37.804Z,63.10
2019-03-25T15:03:09.609Z,63.20
2019-03-25T15:05:41.985Z,63.30
2019-03-25T15:08:14.532Z,62.80
2019-03-25T15:10:53.625Z,62.00
2019-03-25T15:13:21.728Z,61.40
2019-03-25T15:15:53.331Z,60.80
2019-03-25T15:18:27.145Z,60.60
2019-03-25T15:20:58.838Z,60.50
2019-03-25T15:23:32.037Z,59.30
2019-03-25T15:26:02.814Z,59.30
2019-03-25T15:28:35.572Z,58.90
2019-03-25T15:31:04.994Z,58.90
2019-03-25T15:33:46.014Z,58.70
2019-03-25T15:36:18.222Z,58.50
2019-03-25T15:38:49.509Z,58.30
2019-03-25T15:41:31.182Z,58.30
2019-03-25T15:44:02.955Z,58.10
2019-03-25T15:46:35.272Z,56.20
2019-03-25T15:49:12.976Z,53.30
2019-03-25T15:52:06.110Z,51.70
2019-03-25T15:54:37.204Z,49.60
2019-03-25T15:57:30.102Z,48.10
2019-03-25T16:00:04.505Z,47.50
2019-03-25T16:02:36.602Z,46.90
2019-03-25T16:05:08.435Z,46.20
2019-03-25T16:07:53.107Z,45.80
2019-03-25T16:13:01.032Z,45.40
2019-03-25T16:15:39.278Z,45.00
2019-03-25T16:18:45.663Z,44.50
2019-03-25T16:21:20.916Z,44.10
2019-03-25T16:23:55.623Z,44.10
2019-03-25T16:26:35.463Z,43.80
2019-03-25T16:29:08.442Z,44.90
2019-03-25T16:31:42.900Z,46.70
2019-03-25T16:34:15.985Z,48.30
2019-03-25T16:36:51.533Z,50.60
2019-03-25T16:39:32.205Z,51.70
2019-03-25T16:42:32.181Z,52.60
2019-03-25T16:45:13.750Z,53.50
2019-03-25T16:48:09.659Z,53.90
2019-03-25T16:50:42.227Z,54.10
2019-03-25T16:53:25.624Z,54.20
2019-03-25T16:55:57.518Z,54.50
2019-03-25T16:58:29.702Z,54.80
2019-03-25T17:01:38.871Z,55.20
2019-03-25T17:04:09.712Z,55.40
2019-03-25T17:06:42.294Z,55.70
2019-03-25T17:09:15.698Z,55.90
2019-03-25T17:11:46.223Z,56.40
2019-03-25T17:14:18.278Z,57.10
2019-03-25T17:16:49.542Z,57.50
2019-03-25T17:19:23.219Z,58.10
2019-03-25T17:21:58.068Z,58.90
2019-03-25T17:24:26.891Z,59.20
2019-03-25T17:26:58.801Z,59.60
2019-03-25T17:29:30.174Z,59.60
2019-03-25T17:32:04.524Z,59.70
2019-03-25T17:34:35.406Z,59.80
2019-03-25T17:37:17.727Z,59.80
2019-03-25T17:39:50.623Z,59.90
2019-03-25T17:42:24.471Z,59.80
2019-03-25T17:44:56.363Z,59.80
2019-03-25T17:47:35.944Z,59.80
2019-03-25T17:50:14.023Z,59.80
2019-03-25T17:52:44.476Z,59.80
2019-03-25T17:55:15.864Z,60.00
2019-03-25T17:57:50.446Z,60.10
2019-03-25T18:00:47.617Z,60.10
2019-03-25T18:03:18.602Z,60.10
2019-03-25T18:05:57.174Z,60.10
2019-03-25T18:09:06.885Z,60.30
2019-03-25T18:14:25.536Z,60.40
2019-03-25T18:16:59.981Z,60.60
2019-03-25T18:19:34.464Z,60.80
2019-03-25T18:22:47.210Z,61.10
2019-03-25T18:25:27.733Z,61.30
2019-03-25T18:28:12.612Z,61.70
2019-03-25T18:30:53.712Z,61.90
2019-03-25T18:33:33.197Z,62.30
2019-03-25T18:36:09.298Z,62.60
2019-03-25T18:38:59.771Z,62.60
2019-03-25T18:41:36.005Z,62.80
2019-03-25T18:44:40.055Z,63.00
2019-03-25T18:47:27.829Z,63.30
2019-03-25T18:50:06.850Z,63.40
2019-03-25T18:52:52.290Z,63.40
2019-03-25T18:56:30.633Z,63.60
2019-03-25T18:59:12.305Z,63.60
2019-03-25T19:01:54.350Z,63.80
2019-03-25T19:04:41.052Z,63.50
2019-03-25T19:07:18.474Z,63.60
2019-03-25T19:09:48.891Z,63.70
2019-03-25T19:12:20.877Z,63.80
2019-03-25T19:14:55.781Z,64.20
2019-03-25T19:17:31.146Z,64.00
2019-03-25T19:20:06.503Z,64.30
2019-03-25T19:22:41.832Z,64.40
2019-03-25T19:25:14.752Z,64.60
2019-03-25T19:27:57.667Z,64.60
2019-03-25T19:30:27.349Z,64.70
2019-03-25T19:33:03.282Z,64.90
2019-03-25T19:35:33.414Z,65.00
2019-03-25T19:38:10.934Z,65.20
2019-03-25T19:40:42.846Z,65.40
2019-03-25T19:43:14.238Z,65.50
2019-03-25T19:45:45.332Z,65.60
2019-03-25T19:48:21.501Z,65.70
2019-03-25T19:51:09.980Z,65.80
2019-03-25T19:53:47.804Z,65.80
2019-03-25T19:56:20.722Z,65.80
2019-03-25T19:58:58.579Z,65.80
2019-03-25T20:01:32.114Z,65.70
2019-03-25T20:04:17.926Z,65.90
2019-03-25T20:06:50.105Z,66.40
2019-03-25T20:09:20.816Z,65.80
2019-03-25T20:11:52.909Z,66.00
2019-03-25T20:14:26.095Z,65.90
2019-03-25T20:17:06.721Z,66.00
2019-03-25T20:19:39.739Z,66.10
2019-03-25T20:22:11.922Z,66.00
2019-03-25T20:24:45.053Z,66.10
2019-03-25T20:27:14.648Z,66.10
2019-03-25T20:29:46.774Z,66.20
2019-03-25T20:32:17.959Z,66.20
2019-03-25T20:34:52.707Z,66.40
2019-03-25T20:37:25.556Z,66.30
2019-03-25T20:39:55.942Z,66.40
2019-03-25T20:42:27.704Z,66.40
2019-03-25T20:45:05.311Z,66.60
2019-03-25T20:47:40.843Z,66.60
2019-03-25T20:50:10.947Z,66.50
2019-03-25T20:52:41.598Z,66.60
2019-03-25T20:55:13.333Z,66.60
2019-03-25T20:57:57.826Z,66.50
2019-03-25T21:00:56.595Z,66.70
2019-03-25T21:03:30.546Z,66.70
2019-03-25T21:06:05.038Z,66.60
2019-03-25T21:08:42.423Z,66.60
2019-03-25T21:11:14.348Z,66.70
2019-03-25T21:13:46.775Z,66.50
2019-03-25T21:16:18.180Z,66.40
2019-03-25T21:18:52.314Z,66.40
2019-03-25T21:21:26.344Z,66.40
2019-03-25T21:24:01.316Z,66.30
2019-03-25T21:26:32.073Z,66.10
2019-03-25T21:29:01.839Z,66.20
2019-03-25T21:31:32.977Z,66.40
2019-03-25T21:34:09.546Z,66.00
2019-03-25T21:36:51.683Z,66.10
2019-03-25T21:39:23.540Z,65.90
2019-03-25T21:41:56.674Z,65.80
2019-03-25T21:44:35.796Z,65.60
2019-03-25T21:47:16.358Z,65.60
2019-03-25T21:49:52.438Z,65.50
2019-03-25T21:52:24.599Z,65.40
2019-03-25T21:54:57.201Z,65.20
2019-03-25T21:58:02.044Z,65.20
2019-03-25T22:00:34.187Z,65.20
2019-03-25T22:03:12.038Z,65.00
2019-03-25T22:05:41.554Z,65.00
2019-03-25T22:08:11.808Z,64.90
2019-03-25T22:10:43.423Z,65.10
2019-03-25T22:13:13.663Z,65.10
2019-03-25T22:15:43.301Z,65.30
2019-03-25T22:18:16.973Z,65.40
2019-03-25T22:21:42.552Z,65.40
2019-03-25T22:24:58.382Z,65.60
2019-03-25T22:27:47.593Z,65.60
2019-03-25T22:30:29.469Z,65.70
2019-03-25T22:33:39.139Z,65.80
2019-03-25T22:36:12.394Z,65.80
2019-03-25T22:38:53.273Z,66.00
2019-03-25T22:41:26.084Z,66.20
2019-03-25T22:51:03.942Z,66.60
2019-03-25T22:53:35.642Z,66.40
2019-03-25T22:56:29.588Z,66.50
2019-03-25T23:02:19.444Z,66.60
2019-03-25T23:04:51.670Z,66.70
2019-03-25T23:07:28.675Z,66.80
2019-03-25T23:10:59.377Z,66.80
2019-03-25T23:14:05.211Z,66.90
2019-03-25T23:16:37.774Z,66.70
2019-03-25T23:19:13.522Z,66.60
2019-03-25T23:22:12.672Z,66.70
2019-03-25T23:24:59.972Z,66.80
2019-03-25T23:27:36.221Z,66.80
2019-03-25T23:41:33.973Z,66.80
2019-03-25T23:58:30.809Z,67.10
